sensor_id;sensor_type;location;lat;lon;timestamp;pressure;altitude;pressure_sealevel;temperature;humidity
70314;BME280;57725;47.526;18.986;2023-01-28T00:00:16;99838.13;;;4.30;95.77
70314;BME280;57725;47.526;18.986;2023-01-28T00:02:43;99839.00;;;4.30;95.35
70314;BME280;57725;47.526;18.986;2023-01-28T00:05:09;99839.00;;;4.30;95.31
70314;BME280;57725;47.526;18.986;2023-01-28T00:07:37;99841.56;;;4.30;95.50
70314;BME280;57725;47.526;18.986;2023-01-28T00:10:03;99840.72;;;4.30;95.87
70314;BME280;57725;47.526;18.986;2023-01-28T00:12:28;99843.31;;;4.30;96.27
70314;BME280;57725;47.526;18.986;2023-01-28T00:14:54;99843.31;;;4.30;96.35
70314;BME280;57725;47.526;18.986;2023-01-28T00:17:22;99850.22;;;4.29;95.81
70314;BME280;57725;47.526;18.986;2023-01-28T00:19:47;99843.31;;;4.30;95.61
70314;BME280;57725;47.526;18.986;2023-01-28T00:22:12;99844.19;;;4.29;96.15
70314;BME280;57725;47.526;18.986;2023-01-28T00:24:40;99842.44;;;4.29;95.58
70314;BME280;57725;47.526;18.986;2023-01-28T00:27:05;99843.34;;;4.27;95.44
70314;BME280;57725;47.526;18.986;2023-01-28T00:29:33;99854.50;;;4.30;95.77
70314;BME280;57725;47.526;18.986;2023-01-28T00:32:01;99854.50;;;4.30;95.77
70314;BME280;57725;47.526;18.986;2023-01-28T00:34:29;99850.22;;;4.29;96.19
70314;BME280;57725;47.526;18.986;2023-01-28T00:36:54;99850.28;;;4.26;95.64
70314;BME280;57725;47.526;18.986;2023-01-28T00:39:24;99857.97;;;4.31;96.42
70314;BME280;57725;47.526;18.986;2023-01-28T00:41:50;99851.94;;;4.30;95.65
70314;BME280;57725;47.526;18.986;2023-01-28T00:44:19;99857.97;;;4.29;95.43
70314;BME280;57725;47.526;18.986;2023-01-28T00:46:44;99855.38;;;4.29;95.97
70314;BME280;57725;47.526;18.986;2023-01-28T00:49:13;99857.97;;;4.29;96.41
70314;BME280;57725;47.526;18.986;2023-01-28T00:51:39;99855.50;;;4.25;95.64
70314;BME280;57725;47.526;18.986;2023-01-28T00:54:04;99855.38;;;4.29;95.74
70314;BME280;57725;47.526;18.986;2023-01-28T00:56:30;99863.16;;;4.29;95.23
70314;BME280;57725;47.526;18.986;2023-01-28T00:58:56;99860.66;;;4.26;95.78
70314;BME280;57725;47.526;18.986;2023-01-28T01:01:24;99866.59;;;4.30;95.71
70314;BME280;57725;47.526;18.986;2023-01-28T01:03:50;99867.44;;;4.30;95.98
70314;BME280;57725;47.526;18.986;2023-01-28T01:06:28;99870.03;;;4.30;95.89
70314;BME280;57725;47.526;18.986;2023-01-28T01:08:53;99871.78;;;4.30;95.92
70314;BME280;57725;47.526;18.986;2023-01-28T01:11:19;99861.47;;;4.27;95.93
70314;BME280;57725;47.526;18.986;2023-01-28T01:13:49;99854.56;;;4.27;95.92
70314;BME280;57725;47.526;18.986;2023-01-28T01:16:15;99853.75;;;4.25;95.71
70314;BME280;57725;47.526;18.986;2023-01-28T01:18:44;99860.59;;;4.28;95.42
70314;BME280;57725;47.526;18.986;2023-01-28T01:21:20;99867.44;;;4.30;95.95
70314;BME280;57725;47.526;18.986;2023-01-28T01:23:46;99862.31;;;4.29;96.12
70314;BME280;57725;47.526;18.986;2023-01-28T01:26:11;99858.84;;;4.28;95.69
70314;BME280;57725;47.526;18.986;2023-01-28T01:28:39;99861.41;;;4.30;95.82
70314;BME280;57725;47.526;18.986;2023-01-28T01:31:14;99867.44;;;4.30;95.65
70314;BME280;57725;47.526;18.986;2023-01-28T01:33:43;99868.34;;;4.29;96.17
70314;BME280;57725;47.526;18.986;2023-01-28T01:36:13;99870.06;;;4.29;95.79
70314;BME280;57725;47.526;18.986;2023-01-28T01:38:39;99870.06;;;4.29;95.75
70314;BME280;57725;47.526;18.986;2023-01-28T01:41:05;99867.47;;;4.29;95.93
70314;BME280;57725;47.526;18.986;2023-01-28T01:43:59;99869.19;;;4.30;95.80
70314;BME280;57725;47.526;18.986;2023-01-28T01:49:05;99877.81;;;4.29;96.02
70314;BME280;57725;47.526;18.986;2023-01-28T01:51:33;99864.88;;;4.29;95.51
70314;BME280;57725;47.526;18.986;2023-01-28T01:53:59;99864.06;;;4.27;96.40
70314;BME280;57725;47.526;18.986;2023-01-28T01:56:32;99873.50;;;4.29;96.11
70314;BME280;57725;47.526;18.986;2023-01-28T01:59:00;99847.06;;;4.14;95.84
70314;BME280;57725;47.526;18.986;2023-01-28T02:01:29;99867.47;;;4.29;96.41
70314;BME280;57725;47.526;18.986;2023-01-28T02:04:04;99868.34;;;4.29;95.67
70314;BME280;57725;47.526;18.986;2023-01-28T02:06:33;99867.47;;;4.29;95.54
70314;BME280;57725;47.526;18.986;2023-01-28T02:08:59;99875.25;;;4.29;96.34
70314;BME280;57725;47.526;18.986;2023-01-28T02:11:28;99872.66;;;4.29;95.94
70314;BME280;57725;47.526;18.986;2023-01-28T02:14:00;99871.88;;;4.25;95.99
70314;BME280;57725;47.526;18.986;2023-01-28T02:16:33;99871.03;;;4.25;95.58
70314;BME280;57725;47.526;18.986;2023-01-28T02:18:58;99874.38;;;4.28;95.95
70314;BME280;57725;47.526;18.986;2023-01-28T02:21:59;99873.50;;;4.29;95.85
70314;BME280;57725;47.526;18.986;2023-01-28T02:32:18;99867.47;;;4.29;95.73
70314;BME280;57725;47.526;18.986;2023-01-28T02:34:59;99872.66;;;4.29;95.38
70314;BME280;57725;47.526;18.986;2023-01-28T02:37:32;99870.06;;;4.29;95.80
70314;BME280;57725;47.526;18.986;2023-01-28T02:40:08;99865.75;;;4.29;95.79
70314;BME280;57725;47.526;18.986;2023-01-28T02:42:39;99857.22;;;4.24;95.69
70314;BME280;57725;47.526;18.986;2023-01-28T02:45:20;99864.88;;;4.29;95.40
70314;BME280;57725;47.526;18.986;2023-01-28T02:47:46;99867.47;;;4.29;95.89
70314;BME280;57725;47.526;18.986;2023-01-28T02:50:30;99867.50;;;4.27;95.76
70314;BME280;57725;47.526;18.986;2023-01-28T03:01:35;99869.22;;;4.28;95.37
70314;BME280;57725;47.526;18.986;2023-01-28T03:04:21;99861.44;;;4.28;95.63
70314;BME280;57725;47.526;18.986;2023-01-28T03:06:52;99862.31;;;4.27;95.80
70314;BME280;57725;47.526;18.986;2023-01-28T03:09:23;99871.00;;;4.26;95.75
70314;BME280;57725;47.526;18.986;2023-01-28T03:11:54;99864.88;;;4.29;96.36
70314;BME280;57725;47.526;18.986;2023-01-28T03:14:57;99866.69;;;4.25;95.87
70314;BME280;57725;47.526;18.986;2023-01-28T03:17:46;99875.25;;;4.27;95.51
70314;BME280;57725;47.526;18.986;2023-01-28T03:20:37;99867.50;;;4.27;95.29
70314;BME280;57725;47.526;18.986;2023-01-28T03:23:29;99866.66;;;4.27;95.44
70314;BME280;57725;47.526;18.986;2023-01-28T03:26:16;99858.88;;;4.27;96.35
70314;BME280;57725;47.526;18.986;2023-01-28T03:29:11;99862.38;;;4.26;95.46
70314;BME280;57725;47.526;18.986;2023-01-28T03:31:58;99859.81;;;4.24;95.84
70314;BME280;57725;47.526;18.986;2023-01-28T03:34:55;99870.09;;;4.27;95.85
70314;BME280;57725;47.526;18.986;2023-01-28T03:37:39;99871.81;;;4.27;95.34
70314;BME280;57725;47.526;18.986;2023-01-28T03:40:06;99867.50;;;4.27;96.35
70314;BME280;57725;47.526;18.986;2023-01-28T03:42:35;99870.09;;;4.27;96.10
70314;BME280;57725;47.526;18.986;2023-01-28T03:45:04;99872.69;;;4.27;96.35
70314;BME280;57725;47.526;18.986;2023-01-28T03:47:32;99877.91;;;4.26;95.85
70314;BME280;57725;47.526;18.986;2023-01-28T03:49:58;99873.59;;;4.25;95.95
70314;BME280;57725;47.526;18.986;2023-01-28T03:52:27;99877.84;;;4.27;95.92
70314;BME280;57725;47.526;18.986;2023-01-28T03:54:54;99883.03;;;4.27;96.18
70314;BME280;57725;47.526;18.986;2023-01-28T03:57:22;99879.59;;;4.27;95.78
70314;BME280;57725;47.526;18.986;2023-01-28T03:59:48;99879.56;;;4.28;95.48
70314;BME280;57725;47.526;18.986;2023-01-28T04:02:15;99874.41;;;4.27;95.85
70314;BME280;57725;47.526;18.986;2023-01-28T04:04:43;99883.03;;;4.27;96.20
70314;BME280;57725;47.526;18.986;2023-01-28T04:07:10;99882.16;;;4.27;96.13
70314;BME280;57725;47.526;18.986;2023-01-28T04:09:36;99882.16;;;4.27;95.29
70314;BME280;57725;47.526;18.986;2023-01-28T04:12:04;99880.41;;;4.29;95.71
70314;BME280;57725;47.526;18.986;2023-01-28T04:14:30;99879.59;;;4.27;95.49
70314;BME280;57725;47.526;18.986;2023-01-28T04:16:56;99877.91;;;4.26;96.20
70314;BME280;57725;47.526;18.986;2023-01-28T04:19:22;99885.63;;;4.27;96.07
70314;BME280;57725;47.526;18.986;2023-01-28T04:21:50;99877.00;;;4.27;95.97
70314;BME280;57725;47.526;18.986;2023-01-28T04:24:18;99884.81;;;4.25;95.98
70314;BME280;57725;47.526;18.986;2023-01-28T04:26:43;99889.91;;;4.28;95.75
70314;BME280;57725;47.526;18.986;2023-01-28T04:29:11;99887.34;;;4.27;96.28
70314;BME280;57725;47.526;18.986;2023-01-28T04:31:36;99895.09;;;4.28;95.51
70314;BME280;57725;47.526;18.986;2023-01-28T04:34:04;99893.38;;;4.27;95.60
70314;BME280;57725;47.526;18.986;2023-01-28T04:36:32;99893.38;;;4.27;95.47
70314;BME280;57725;47.526;18.986;2023-01-28T04:38:57;99896.88;;;4.26;95.95
70314;BME280;57725;47.526;18.986;2023-01-28T04:41:25;99895.97;;;4.27;95.64
70314;BME280;57725;47.526;18.986;2023-01-28T04:43:53;99890.84;;;4.26;95.84
70314;BME280;57725;47.526;18.986;2023-01-28T04:46:23;99896.91;;;4.25;95.78
70314;BME280;57725;47.526;18.986;2023-01-28T04:48:51;99900.28;;;4.27;95.58
70314;BME280;57725;47.526;18.986;2023-01-28T04:51:19;99902.88;;;4.27;96.15
70314;BME280;57725;47.526;18.986;2023-01-28T04:53:45;99904.63;;;4.26;95.74
70314;BME280;57725;47.526;18.986;2023-01-28T04:56:10;99905.47;;;4.27;95.49
70314;BME280;57725;47.526;18.986;2023-01-28T04:58:38;99906.38;;;4.26;95.34
70314;BME280;57725;47.526;18.986;2023-01-28T05:01:03;99909.81;;;4.26;95.77
70314;BME280;57725;47.526;18.986;2023-01-28T05:03:29;99903.78;;;4.26;96.16
70314;BME280;57725;47.526;18.986;2023-01-28T05:05:54;99917.59;;;4.26;96.05
70314;BME280;57725;47.526;18.986;2023-01-28T05:08:24;99919.34;;;4.24;96.28
70314;BME280;57725;47.526;18.986;2023-01-28T05:10:49;99915.00;;;4.25;95.56
70314;BME280;57725;47.526;18.986;2023-01-28T05:13:15;99916.72;;;4.26;96.27
70314;BME280;57725;47.526;18.986;2023-01-28T05:15:40;99923.63;;;4.25;95.90
70314;BME280;57725;47.526;18.986;2023-01-28T05:18:08;99922.75;;;4.26;95.52
70314;BME280;57725;47.526;18.986;2023-01-28T05:20:33;99929.69;;;4.24;95.49
70314;BME280;57725;47.526;18.986;2023-01-28T05:23:01;99931.41;;;4.25;96.02
70314;BME280;57725;47.526;18.986;2023-01-28T05:25:26;99928.84;;;4.24;95.68
70314;BME280;57725;47.526;18.986;2023-01-28T05:27:54;99925.34;;;4.26;95.85
70314;BME280;57725;47.526;18.986;2023-01-28T05:30:21;99922.81;;;4.23;95.83
70314;BME280;57725;47.526;18.986;2023-01-28T05:32:47;99922.81;;;4.23;95.94
70314;BME280;57725;47.526;18.986;2023-01-28T05:35:12;99928.81;;;4.25;96.05
70314;BME280;57725;47.526;18.986;2023-01-28T05:37:37;99922.81;;;4.23;96.06
70314;BME280;57725;47.526;18.986;2023-01-28T05:40:06;99933.09;;;4.26;95.71
70314;BME280;57725;47.526;18.986;2023-01-28T05:42:31;99924.50;;;4.26;95.50
70314;BME280;57725;47.526;18.986;2023-01-28T05:44:56;99927.09;;;4.24;95.48
70314;BME280;57725;47.526;18.986;2023-01-28T05:47:27;99930.56;;;4.23;95.55
70314;BME280;57725;47.526;18.986;2023-01-28T05:49:55;99940.91;;;4.25;95.55
70314;BME280;57725;47.526;18.986;2023-01-28T05:52:20;99940.91;;;4.23;95.37
70314;BME280;57725;47.526;18.986;2023-01-28T05:54:46;99936.59;;;4.24;95.52
70314;BME280;57725;47.526;18.986;2023-01-28T05:57:13;99941.75;;;4.25;95.74
70314;BME280;57725;47.526;18.986;2023-01-28T05:59:41;99943.47;;;4.25;95.40
70314;BME280;57725;47.526;18.986;2023-01-28T06:02:07;99946.94;;;4.25;95.82
70314;BME280;57725;47.526;18.986;2023-01-28T06:04:34;99946.06;;;4.25;95.81
70314;BME280;57725;47.526;18.986;2023-01-28T06:07:03;99952.97;;;4.26;95.66
70314;BME280;57725;47.526;18.986;2023-01-28T06:09:29;99958.16;;;4.24;95.55
70314;BME280;57725;47.526;18.986;2023-01-28T06:11:56;99965.03;;;4.25;95.78
70314;BME280;57725;47.526;18.986;2023-01-28T06:14:21;99963.31;;;4.24;95.72
70314;BME280;57725;47.526;18.986;2023-01-28T06:16:49;99962.44;;;4.25;96.01
70314;BME280;57725;47.526;18.986;2023-01-28T06:19:18;99961.59;;;4.25;95.59
70314;BME280;57725;47.526;18.986;2023-01-28T06:21:44;99968.47;;;4.26;95.74
70314;BME280;57725;47.526;18.986;2023-01-28T06:24:09;99970.22;;;4.24;95.90
70314;BME280;57725;47.526;18.986;2023-01-28T06:26:34;99971.94;;;4.25;95.81
70314;BME280;57725;47.526;18.986;2023-01-28T06:29:00;99968.50;;;4.24;96.22
70314;BME280;57725;47.526;18.986;2023-01-28T06:31:25;99969.41;;;4.22;95.65
70314;BME280;57725;47.526;18.986;2023-01-28T06:33:51;99969.34;;;4.25;95.93
70314;BME280;57725;47.526;18.986;2023-01-28T06:36:18;99980.56;;;4.25;95.78
70314;BME280;57725;47.526;18.986;2023-01-28T06:38:48;99981.44;;;4.24;95.90
70314;BME280;57725;47.526;18.986;2023-01-28T06:41:14;99984.03;;;4.24;96.20
70314;BME280;57725;47.526;18.986;2023-01-28T06:43:39;99992.66;;;4.25;96.19
70314;BME280;57725;47.526;18.986;2023-01-28T06:46:07;99989.22;;;4.24;95.89
70314;BME280;57725;47.526;18.986;2023-01-28T06:48:32;99995.25;;;4.23;95.65
70314;BME280;57725;47.526;18.986;2023-01-28T06:50:58;99992.66;;;4.25;95.78
70314;BME280;57725;47.526;18.986;2023-01-28T06:53:25;100005.59;;;4.23;95.40
70314;BME280;57725;47.526;18.986;2023-01-28T06:55:51;100006.47;;;4.24;95.48
70314;BME280;57725;47.526;18.986;2023-01-28T06:58:16;100004.72;;;4.24;95.24
70314;BME280;57725;47.526;18.986;2023-01-28T07:00:42;100007.31;;;4.24;95.46
70314;BME280;57725;47.526;18.986;2023-01-28T07:03:07;100010.78;;;4.23;95.58
70314;BME280;57725;47.526;18.986;2023-01-28T07:05:35;100013.38;;;4.22;95.39
70314;BME280;57725;47.526;18.986;2023-01-28T07:08:00;100016.81;;;4.24;95.68
70314;BME280;57725;47.526;18.986;2023-01-28T07:10:27;100017.69;;;4.23;95.74
70314;BME280;57725;47.526;18.986;2023-01-28T07:12:54;100031.47;;;4.23;95.77
70314;BME280;57725;47.526;18.986;2023-01-28T07:15:22;100025.44;;;4.23;95.46
70314;BME280;57725;47.526;18.986;2023-01-28T07:17:50;100029.75;;;4.24;95.79
70314;BME280;57725;47.526;18.986;2023-01-28T07:20:16;100035.81;;;4.21;95.71
70314;BME280;57725;47.526;18.986;2023-01-28T07:22:42;100043.56;;;4.24;95.40
70314;BME280;57725;47.526;18.986;2023-01-28T07:25:09;100041.84;;;4.23;95.97
70314;BME280;57725;47.526;18.986;2023-01-28T07:27:37;100046.16;;;4.23;95.38
70314;BME280;57725;47.526;18.986;2023-01-28T07:30:05;100049.59;;;4.23;95.95
70314;BME280;57725;47.526;18.986;2023-01-28T07:32:31;100041.84;;;4.23;95.40
70314;BME280;57725;47.526;18.986;2023-01-28T07:34:58;100040.97;;;4.23;95.63
70314;BME280;57725;47.526;18.986;2023-01-28T07:37:24;100044.44;;;4.23;95.30
70314;BME280;57725;47.526;18.986;2023-01-28T07:39:49;100038.41;;;4.23;95.76
70314;BME280;57725;47.526;18.986;2023-01-28T07:42:14;100041.84;;;4.23;95.31
70314;BME280;57725;47.526;18.986;2023-01-28T07:44:42;100049.59;;;4.23;95.76
70314;BME280;57725;47.526;18.986;2023-01-28T07:47:11;100043.59;;;4.21;95.81
70314;BME280;57725;47.526;18.986;2023-01-28T07:49:41;100037.56;;;4.19;95.67
70314;BME280;57725;47.526;18.986;2023-01-28T07:52:07;100046.16;;;4.23;95.65
70314;BME280;57725;47.526;18.986;2023-01-28T07:54:33;100044.44;;;4.22;95.89
70314;BME280;57725;47.526;18.986;2023-01-28T07:56:59;100049.63;;;4.22;95.62
70314;BME280;57725;47.526;18.986;2023-01-28T07:59:25;100050.47;;;4.22;95.81
70314;BME280;57725;47.526;18.986;2023-01-28T08:01:53;100046.19;;;4.21;96.09
70314;BME280;57725;47.526;18.986;2023-01-28T08:04:18;100039.31;;;4.17;95.70
70314;BME280;57725;47.526;18.986;2023-01-28T08:06:46;100058.22;;;4.24;95.37
70314;BME280;57725;47.526;18.986;2023-01-28T08:09:12;100053.06;;;4.22;95.50
70314;BME280;57725;47.526;18.986;2023-01-28T08:11:40;100059.97;;;4.22;95.87
70314;BME280;57725;47.526;18.986;2023-01-28T08:14:11;100058.25;;;4.22;95.77
70314;BME280;57725;47.526;18.986;2023-01-28T08:16:36;100063.41;;;4.22;96.07
70314;BME280;57725;47.526;18.986;2023-01-28T08:19:07;100070.31;;;4.22;95.95
70314;BME280;57725;47.526;18.986;2023-01-28T08:21:32;100067.72;;;4.22;95.83
70314;BME280;57725;47.526;18.986;2023-01-28T08:23:57;100062.56;;;4.22;95.72
70314;BME280;57725;47.526;18.986;2023-01-28T08:26:23;100069.44;;;4.23;95.87
70314;BME280;57725;47.526;18.986;2023-01-28T08:28:51;100066.03;;;4.21;95.44
70314;BME280;57725;47.526;18.986;2023-01-28T08:31:16;100075.50;;;4.22;95.40
70314;BME280;57725;47.526;18.986;2023-01-28T08:33:47;100075.47;;;4.23;95.70
70314;BME280;57725;47.526;18.986;2023-01-28T08:36:14;100069.50;;;4.18;95.67
70314;BME280;57725;47.526;18.986;2023-01-28T08:38:42;100072.06;;;4.21;95.63
70314;BME280;57725;47.526;18.986;2023-01-28T08:41:10;100082.41;;;4.21;95.91
70314;BME280;57725;47.526;18.986;2023-01-28T08:43:38;100088.44;;;4.22;95.85
70314;BME280;57725;47.526;18.986;2023-01-28T08:46:06;100084.13;;;4.22;95.70
70314;BME280;57725;47.526;18.986;2023-01-28T08:48:33;100085.84;;;4.22;95.29
70314;BME280;57725;47.526;18.986;2023-01-28T08:51:01;100085.88;;;4.20;95.49
70314;BME280;57725;47.526;18.986;2023-01-28T08:53:26;100088.47;;;4.20;95.58
70314;BME280;57725;47.526;18.986;2023-01-28T08:55:52;100083.28;;;4.20;96.14
70314;BME280;57725;47.526;18.986;2023-01-28T08:58:19;100089.31;;;4.21;95.86
70314;BME280;57725;47.526;18.986;2023-01-28T09:00:45;100084.16;;;4.18;95.84
70314;BME280;57725;47.526;18.986;2023-01-28T09:03:14;100091.03;;;4.22;95.63
70314;BME280;57725;47.526;18.986;2023-01-28T09:05:40;100085.00;;;4.20;95.80
70314;BME280;57725;47.526;18.986;2023-01-28T09:08:10;100091.03;;;4.22;95.81
70314;BME280;57725;47.526;18.986;2023-01-28T09:10:41;100091.06;;;4.19;95.71
70314;BME280;57725;47.526;18.986;2023-01-28T09:13:12;100092.75;;;4.21;95.38
70314;BME280;57725;47.526;18.986;2023-01-28T09:15:44;100092.75;;;4.21;96.13
70314;BME280;57725;47.526;18.986;2023-01-28T09:18:09;100097.94;;;4.20;95.74
70314;BME280;57725;47.526;18.986;2023-01-28T09:20:36;100107.41;;;4.22;95.51
70314;BME280;57725;47.526;18.986;2023-01-28T09:23:05;100103.97;;;4.22;96.16
70314;BME280;57725;47.526;18.986;2023-01-28T09:25:31;100107.41;;;4.22;96.02
70314;BME280;57725;47.526;18.986;2023-01-28T09:27:57;100105.69;;;4.21;95.84
70314;BME280;57725;47.526;18.986;2023-01-28T09:30:24;100109.13;;;4.22;95.54
70314;BME280;57725;47.526;18.986;2023-01-28T09:32:53;100108.28;;;4.21;96.00
70314;BME280;57725;47.526;18.986;2023-01-28T09:35:19;100105.72;;;4.18;95.52
70314;BME280;57725;47.526;18.986;2023-01-28T09:37:46;100107.44;;;4.19;96.10
70314;BME280;57725;47.526;18.986;2023-01-28T09:40:18;100110.84;;;4.23;95.79
70314;BME280;57725;47.526;18.986;2023-01-28T09:42:54;100110.00;;;4.22;95.79
70314;BME280;57725;47.526;18.986;2023-01-28T09:48:00;100104.81;;;4.22;96.18
70314;BME280;57725;47.526;18.986;2023-01-28T09:50:47;100107.41;;;4.22;95.73
70314;BME280;57725;47.526;18.986;2023-01-28T09:53:34;100106.56;;;4.22;96.27
70314;BME280;57725;47.526;18.986;2023-01-28T09:56:12;100098.78;;;4.22;96.19
70314;BME280;57725;47.526;18.986;2023-01-28T09:58:40;100088.56;;;4.13;95.97
70314;BME280;57725;47.526;18.986;2023-01-28T10:10:02;100097.91;;;4.23;95.85
70314;BME280;57725;47.526;18.986;2023-01-28T10:15:46;100091.88;;;4.22;95.73
70314;BME280;57725;47.526;18.986;2023-01-28T10:18:26;100097.91;;;4.23;96.46
70314;BME280;57725;47.526;18.986;2023-01-28T10:20:56;100095.31;;;4.23;95.70
70314;BME280;57725;47.526;18.986;2023-01-28T10:25:58;100094.44;;;4.24;96.38
70314;BME280;57725;47.526;18.986;2023-01-28T10:28:27;100093.59;;;4.23;95.93
70314;BME280;57725;47.526;18.986;2023-01-28T10:30:52;100100.50;;;4.24;96.35
70314;BME280;57725;47.526;18.986;2023-01-28T10:33:22;100103.94;;;4.23;95.70
70314;BME280;57725;47.526;18.986;2023-01-28T10:35:54;100099.63;;;4.24;96.48
70314;BME280;57725;47.526;18.986;2023-01-28T10:38:27;100092.72;;;4.24;95.93
70314;BME280;57725;47.526;18.986;2023-01-28T10:41:00;100095.31;;;4.24;96.01
70314;BME280;57725;47.526;18.986;2023-01-28T10:43:31;100098.75;;;4.25;95.72
70314;BME280;57725;47.526;18.986;2023-01-28T10:46:13;100093.56;;;4.25;96.00
70314;BME280;57725;47.526;18.986;2023-01-28T10:51:11;100094.44;;;4.25;96.02
70314;BME280;57725;47.526;18.986;2023-01-28T10:53:42;100102.19;;;4.25;95.87
70314;BME280;57725;47.526;18.986;2023-01-28T10:56:10;100095.28;;;4.26;95.99
70314;BME280;57725;47.526;18.986;2023-01-28T10:59:16;100092.72;;;4.26;96.01
70314;BME280;57725;47.526;18.986;2023-01-28T11:02:03;100103.06;;;4.26;95.91
70314;BME280;57725;47.526;18.986;2023-01-28T11:04:31;100101.31;;;4.26;96.14
70314;BME280;57725;47.526;18.986;2023-01-28T11:09:36;100097.88;;;4.26;95.55
70314;BME280;57725;47.526;18.986;2023-01-28T11:12:33;100092.72;;;4.26;96.36
70314;BME280;57725;47.526;18.986;2023-01-28T11:15:00;100096.97;;;4.27;96.18
70314;BME280;57725;47.526;18.986;2023-01-28T11:17:29;100092.72;;;4.26;96.07
70314;BME280;57725;47.526;18.986;2023-01-28T11:20:09;100081.50;;;4.24;96.24
70314;BME280;57725;47.526;18.986;2023-01-28T11:22:38;100080.63;;;4.25;96.08
70314;BME280;57725;47.526;18.986;2023-01-28T11:25:18;100084.88;;;4.27;96.07
70314;BME280;57725;47.526;18.986;2023-01-28T11:27:50;100084.88;;;4.27;95.86
70314;BME280;57725;47.526;18.986;2023-01-28T11:30:24;100084.88;;;4.29;95.78
70314;BME280;57725;47.526;18.986;2023-01-28T11:33:45;100085.72;;;4.29;96.25
70314;BME280;57725;47.526;18.986;2023-01-28T11:41:37;100071.91;;;4.30;96.29
70314;BME280;57725;47.526;18.986;2023-01-28T11:52:08;100073.66;;;4.30;96.13
70314;BME280;57725;47.526;18.986;2023-01-28T12:08:06;100064.13;;;4.32;96.47
70314;BME280;57725;47.526;18.986;2023-01-28T12:16:16;100060.72;;;4.30;96.33
70314;BME280;57725;47.526;18.986;2023-01-28T12:27:39;100059.84;;;4.31;96.29
70314;BME280;57725;47.526;18.986;2023-01-28T12:33:24;100064.09;;;4.35;96.21
70314;BME280;57725;47.526;18.986;2023-01-28T12:41:22;100064.09;;;4.35;96.17
70314;BME280;57725;47.526;18.986;2023-01-28T12:44:07;100062.38;;;4.35;96.57
70314;BME280;57725;47.526;18.986;2023-01-28T12:46:53;100063.25;;;4.34;96.21
70314;BME280;57725;47.526;18.986;2023-01-28T12:49:28;100063.22;;;4.36;96.28
70314;BME280;57725;47.526;18.986;2023-01-28T12:52:16;100060.63;;;4.36;96.45
70314;BME280;57725;47.526;18.986;2023-01-28T12:57:28;100068.41;;;4.36;96.50
70314;BME280;57725;47.526;18.986;2023-01-28T13:02:41;100064.97;;;4.34;96.21
70314;BME280;57725;47.526;18.986;2023-01-28T13:05:16;100073.56;;;4.38;96.69
70314;BME280;57725;47.526;18.986;2023-01-28T13:07:53;100087.38;;;4.38;96.66
70314;BME280;57725;47.526;18.986;2023-01-28T13:13:02;100080.47;;;4.37;96.25
70314;BME280;57725;47.526;18.986;2023-01-28T13:15:28;100087.38;;;4.36;96.53
70314;BME280;57725;47.526;18.986;2023-01-28T13:18:00;100089.03;;;4.39;96.08
70314;BME280;57725;47.526;18.986;2023-01-28T13:23:05;100092.50;;;4.40;96.24
70314;BME280;57725;47.526;18.986;2023-01-28T13:25:35;100079.63;;;4.36;96.38
70314;BME280;57725;47.526;18.986;2023-01-28T13:28:05;100090.75;;;4.40;96.73
70314;BME280;57725;47.526;18.986;2023-01-28T13:30:34;100092.50;;;4.40;96.23
70314;BME280;57725;47.526;18.986;2023-01-28T13:33:06;100094.19;;;4.41;96.36
70314;BME280;57725;47.526;18.986;2023-01-28T13:35:52;100092.53;;;4.38;95.95
70314;BME280;57725;47.526;18.986;2023-01-28T13:38:22;100099.38;;;4.41;96.70
70314;BME280;57725;47.526;18.986;2023-01-28T13:40:57;100105.41;;;4.41;96.70
70314;BME280;57725;47.526;18.986;2023-01-28T13:46:06;100114.91;;;4.42;96.08
70314;BME280;57725;47.526;18.986;2023-01-28T13:48:44;100120.06;;;4.42;95.97
70314;BME280;57725;47.526;18.986;2023-01-28T13:51:30;100107.16;;;4.39;96.51
70314;BME280;57725;47.526;18.986;2023-01-28T13:53:59;100113.19;;;4.40;96.27
70314;BME280;57725;47.526;18.986;2023-01-28T13:56:33;100122.66;;;4.42;96.67
70314;BME280;57725;47.526;18.986;2023-01-28T13:59:12;100120.94;;;4.43;96.59
70314;BME280;57725;47.526;18.986;2023-01-28T14:02:03;100122.66;;;4.44;96.28
70314;BME280;57725;47.526;18.986;2023-01-28T14:04:47;100125.22;;;4.44;96.31
70314;BME280;57725;47.526;18.986;2023-01-28T14:18:17;100136.44;;;4.46;95.90
70314;BME280;57725;47.526;18.986;2023-01-28T14:20:46;100134.69;;;4.46;96.38
70314;BME280;57725;47.526;18.986;2023-01-28T14:23:17;100146.78;;;4.47;96.45
70314;BME280;57725;47.526;18.986;2023-01-28T14:28:18;100148.50;;;4.47;96.35
70314;BME280;57725;47.526;18.986;2023-01-28T14:30:58;100145.91;;;4.48;96.50
70314;BME280;57725;47.526;18.986;2023-01-28T14:33:30;100142.47;;;4.45;96.41
70314;BME280;57725;47.526;18.986;2023-01-28T14:36:04;100147.63;;;4.48;96.19
70314;BME280;57725;47.526;18.986;2023-01-28T14:38:40;100154.50;;;4.49;96.15
70314;BME280;57725;47.526;18.986;2023-01-28T14:41:20;100151.06;;;4.48;96.50
70314;BME280;57725;47.526;18.986;2023-01-28T14:43:47;100159.69;;;4.49;96.37
70314;BME280;57725;47.526;18.986;2023-01-28T14:54:23;100157.06;;;4.50;96.50
70314;BME280;57725;47.526;18.986;2023-01-28T14:59:43;100165.69;;;4.51;96.07
70314;BME280;57725;47.526;18.986;2023-01-28T15:02:27;100165.69;;;4.51;96.44
70314;BME280;57725;47.526;18.986;2023-01-28T15:04:53;100165.69;;;4.51;96.37
70314;BME280;57725;47.526;18.986;2023-01-28T15:07:26;100175.16;;;4.52;96.32
70314;BME280;57725;47.526;18.986;2023-01-28T15:10:13;100165.69;;;4.51;96.36
70314;BME280;57725;47.526;18.986;2023-01-28T15:12:40;100176.91;;;4.51;95.84
70314;BME280;57725;47.526;18.986;2023-01-28T15:15:10;100176.03;;;4.51;96.28
70314;BME280;57725;47.526;18.986;2023-01-28T15:17:39;100180.34;;;4.50;96.13
70314;BME280;57725;47.526;18.986;2023-01-28T15:20:06;100186.41;;;4.51;96.46